| << 18.8. | 20.8. >> |
|
Windrichtung in Grad |
Windgeschw. in m/s |
Windspitzen in m/s |
Temp.Minima in °C |
Temperatur in °C |
Temp.Maxima in °C |
Luftfeuchte in % |
Luftdruck in hPa |
Taupunkt in °C |
Niederschlag in mm |
|
|---|---|---|---|---|---|---|---|---|---|---|
| ▲ Maxima | 1,7 | 6,2 | 20,3 | 20,5 | 20,8 | 97,8 | 997,7 | 17,4 | 0,0 | |
| Ø Mittelwert | 258,6 | 0,7 | 2,1 | 16,9 | 17,1 | 17,4 | 85,1 | 993,9 | 16,0 | 0,0 |
| ▼ Minima | 0,2 | 0,6 | 13,8 | 14,1 | 14,2 | 67,6 | 990,5 | 14,8 | 0,0 | |
| ∑ Summe | 0,0 |
| Uhrzeit (MEZ) | Windrichtung in Grad | Windgeschw. in m/s | Windspitzen in m/s | Temp.Minima in °C | Temperatur in °C | Temp.Maxima in °C | Luftfeuchte in % | Luftdruck in hPa | Taupunkt in °C | Niederschlag in mm |
|---|---|---|---|---|---|---|---|---|---|---|
| 00:00 | 237,5 | 1,0 | 2,2 | 16,3 | 16,6 | 16,8 | 93,8 | 997,7 | 17,1 | 0,0 |
| 00:10 | 240,4 | 0,9 | 2,0 | 16,3 | 16,6 | 16,8 | 93,7 | 997,6 | 17,1 | 0,0 |
| 00:20 | 235,5 | 0,9 | 2,0 | 16,5 | 16,7 | 16,9 | 93,7 | 997,4 | 17,2 | 0,0 |
| 00:30 | 237,8 | 0,9 | 2,2 | 16,7 | 16,9 | 17,1 | 93,2 | 997,2 | 17,3 | 0,0 |
| 00:40 | 238,9 | 0,8 | 1,8 | 16,7 | 16,9 | 17,1 | 92,7 | 997,3 | 17,3 | 0,0 |
| 00:50 | 236,1 | 0,7 | 2,1 | 16,6 | 16,9 | 17,2 | 92,5 | 997,2 | 17,2 | 0,0 |
| 01:00 | 233,5 | 0,8 | 1,9 | 16,7 | 16,9 | 17,2 | 92,5 | 997,0 | 17,3 | 0,0 |
| 01:10 | 230,0 | 0,8 | 1,9 | 16,8 | 17,0 | 17,3 | 92,1 | 996,9 | 17,3 | 0,0 |
| 01:20 | 238,1 | 0,9 | 1,7 | 16,9 | 17,1 | 17,2 | 91,9 | 996,9 | 17,3 | 0,0 |
| 01:30 | 222,5 | 0,5 | 1,5 | 16,8 | 17,0 | 17,2 | 91,9 | 996,9 | 17,3 | 0,0 |
| 01:40 | 229,1 | 0,5 | 1,4 | 17,0 | 17,1 | 17,3 | 91,6 | 996,8 | 17,4 | 0,0 |
| 01:50 | 238,6 | 0,6 | 2,1 | 17,0 | 17,2 | 17,5 | 91,3 | 996,8 | 17,3 | 0,0 |
| 02:00 | 220,1 | 0,7 | 1,7 | 17,1 | 17,3 | 17,6 | 91,2 | 996,6 | 17,4 | 0,0 |
| 02:10 | 228,5 | 0,5 | 1,3 | 17,2 | 17,3 | 17,4 | 90,8 | 996,5 | 17,4 | 0,0 |
| 02:20 | 240,8 | 0,6 | 1,8 | 17,1 | 17,3 | 17,5 | 90,7 | 996,4 | 17,3 | 0,0 |
| 02:30 | 234,0 | 0,8 | 2,0 | 17,0 | 17,2 | 17,5 | 91,1 | 996,3 | 17,3 | 0,0 |
| 02:40 | 228,9 | 0,7 | 1,8 | 17,1 | 17,3 | 17,5 | 90,9 | 996,3 | 17,3 | 0,0 |
| 02:50 | 220,8 | 0,8 | 1,8 | 17,2 | 17,4 | 17,6 | 90,2 | 996,2 | 17,3 | 0,0 |
| 03:00 | 225,3 | 0,6 | 1,7 | 17,2 | 17,3 | 17,6 | 89,7 | 996,2 | 17,2 | 0,0 |
| 03:10 | 166,7 | 0,2 | 0,8 | 17,2 | 17,3 | 17,5 | 89,4 | 996,1 | 17,3 | 0,0 |
| 03:20 | 201,8 | 0,2 | 0,7 | 17,3 | 17,4 | 17,5 | 88,9 | 996,1 | 17,2 | 0,0 |
| 03:30 | 81,0 | 0,6 | 1,3 | 17,0 | 17,3 | 17,5 | 89,1 | 996,1 | 17,1 | 0,0 |
| 03:40 | 115,2 | 0,4 | 1,3 | 16,6 | 16,9 | 17,3 | 90,3 | 995,9 | 16,9 | 0,0 |
| 03:50 | 173,4 | 0,5 | 1,2 | 16,5 | 16,6 | 16,8 | 91,2 | 995,8 | 16,8 | 0,0 |
| 04:00 | 236,8 | 0,5 | 1,4 | 16,5 | 16,9 | 17,1 | 90,5 | 995,8 | 16,9 | 0,0 |
| 04:10 | 242,4 | 0,7 | 2,1 | 17,0 | 17,2 | 17,5 | 88,7 | 995,7 | 16,9 | 0,0 |
| 04:20 | 225,6 | 0,4 | 1,1 | 17,1 | 17,3 | 17,5 | 88,0 | 995,7 | 16,9 | 0,0 |
| 04:30 | 209,5 | 0,2 | 1,0 | 17,2 | 17,4 | 17,6 | 87,1 | 995,7 | 16,9 | 0,0 |
| 04:40 | 225,8 | 0,6 | 2,3 | 17,3 | 17,5 | 17,8 | 86,7 | 995,5 | 16,8 | 0,0 |
| 04:50 | 246,5 | 1,0 | 3,4 | 17,2 | 17,4 | 17,6 | 86,6 | 995,5 | 16,6 | 0,0 |
| 05:00 | 252,9 | 1,0 | 2,9 | 17,1 | 17,3 | 17,5 | 86,3 | 995,4 | 16,5 | 0,0 |
| 05:10 | 237,3 | 1,0 | 2,6 | 17,0 | 17,3 | 17,5 | 86,5 | 995,4 | 16,4 | 0,0 |
| 05:20 | 243,4 | 1,0 | 2,9 | 17,0 | 17,3 | 17,5 | 86,3 | 995,5 | 16,4 | 0,0 |
| 05:30 | 246,6 | 1,4 | 3,5 | 17,2 | 17,4 | 17,6 | 85,8 | 995,4 | 16,4 | 0,0 |
| 05:40 | 235,4 | 0,8 | 2,6 | 17,1 | 17,3 | 17,5 | 85,7 | 995,4 | 16,4 | 0,0 |
| 05:50 | 232,8 | 0,7 | 1,9 | 17,2 | 17,4 | 17,7 | 85,2 | 995,4 | 16,4 | 0,0 |
| 06:00 | 239,1 | 0,5 | 1,7 | 17,3 | 17,4 | 17,7 | 84,6 | 995,4 | 16,4 | 0,0 |
| 06:10 | 236,1 | 0,7 | 2,4 | 17,4 | 17,5 | 17,8 | 83,7 | 995,2 | 16,2 | 0,0 |
| 06:20 | 240,5 | 1,0 | 3,0 | 17,2 | 17,5 | 17,8 | 83,6 | 995,0 | 16,1 | 0,0 |
| 06:30 | 224,0 | 0,6 | 1,8 | 17,2 | 17,4 | 17,6 | 83,6 | 994,9 | 16,1 | 0,0 |
| 06:40 | 262,0 | 0,7 | 2,1 | 17,3 | 17,5 | 17,8 | 83,1 | 995,0 | 16,1 | 0,0 |
| 06:50 | 231,6 | 0,7 | 2,2 | 17,2 | 17,4 | 17,7 | 82,9 | 995,0 | 16,0 | 0,0 |
| 07:00 | 244,1 | 0,4 | 1,3 | 17,2 | 17,5 | 17,7 | 82,2 | 995,0 | 16,0 | 0,0 |
| 07:10 | 224,1 | 1,2 | 3,0 | 17,4 | 17,7 | 17,9 | 80,7 | 994,9 | 15,7 | 0,0 |
| 07:20 | 230,7 | 1,1 | 3,5 | 17,3 | 17,6 | 17,8 | 79,8 | 994,9 | 15,4 | 0,0 |
| 07:30 | 238,4 | 1,1 | 3,4 | 17,4 | 17,6 | 17,7 | 79,8 | 994,9 | 15,4 | 0,0 |
| 07:40 | 249,9 | 0,6 | 2,2 | 17,2 | 17,4 | 17,7 | 80,3 | 995,1 | 15,5 | 0,0 |
| 07:50 | 244,6 | 0,9 | 2,4 | 17,2 | 17,5 | 17,7 | 80,0 | 995,0 | 15,4 | 0,0 |
| Uhrzeit (MEZ) | Windrichtung in Grad | Windgeschw. in m/s | Windspitzen in m/s | Temp.Minima in °C | Temperatur in °C | Temp.Maxima in °C | Luftfeuchte in % | Luftdruck in hPa | Taupunkt in °C | Niederschlag in mm |
|---|---|---|---|---|---|---|---|---|---|---|
| 08:00 | 239,5 | 1,0 | 3,1 | 17,1 | 17,5 | 17,7 | 79,7 | 994,9 | 15,3 | 0,0 |
| 08:10 | 237,6 | 1,0 | 2,6 | 17,1 | 17,4 | 17,6 | 80,3 | 994,9 | 15,3 | 0,0 |
| 08:20 | 238,0 | 1,2 | 3,3 | 17,0 | 17,4 | 17,6 | 80,0 | 994,8 | 15,3 | 0,0 |
| 08:30 | 235,5 | 0,9 | 3,5 | 16,9 | 17,2 | 17,5 | 80,4 | 994,8 | 15,3 | 0,0 |
| 08:40 | 224,7 | 0,8 | 2,3 | 17,1 | 17,3 | 17,5 | 80,0 | 994,8 | 15,3 | 0,0 |
| 08:50 | 209,8 | 0,8 | 2,1 | 17,3 | 17,5 | 17,8 | 79,3 | 994,7 | 15,3 | 0,0 |
| 09:00 | 217,9 | 0,7 | 2,6 | 17,4 | 17,7 | 18,0 | 78,7 | 994,6 | 15,4 | 0,0 |
| 09:10 | 217,4 | 0,8 | 2,2 | 17,5 | 17,8 | 18,1 | 78,2 | 994,5 | 15,4 | 0,0 |
| 09:20 | 217,7 | 0,6 | 1,9 | 17,7 | 17,9 | 18,1 | 78,1 | 994,4 | 15,5 | 0,0 |
| 09:30 | 233,0 | 0,7 | 1,4 | 17,9 | 18,1 | 18,3 | 78,0 | 994,3 | 15,6 | 0,0 |
| 09:40 | 230,1 | 0,6 | 2,1 | 17,9 | 18,1 | 18,5 | 78,0 | 994,2 | 15,7 | 0,0 |
| 09:50 | 235,7 | 0,4 | 1,4 | 18,0 | 18,3 | 18,6 | 77,8 | 994,3 | 15,9 | 0,0 |
| 10:00 | 245,8 | 0,5 | 1,7 | 18,3 | 18,7 | 19,1 | 77,0 | 994,5 | 16,1 | 0,0 |
| 10:10 | 257,4 | 1,2 | 3,0 | 18,5 | 18,8 | 19,1 | 77,0 | 994,5 | 16,0 | 0,0 |
| 10:20 | 259,9 | 1,2 | 2,7 | 18,6 | 18,8 | 19,0 | 76,7 | 994,5 | 15,9 | 0,0 |
| 10:30 | 264,9 | 1,4 | 3,3 | 18,6 | 18,9 | 19,0 | 76,5 | 994,4 | 15,9 | 0,0 |
| 10:40 | 261,8 | 0,9 | 2,6 | 18,7 | 18,9 | 19,1 | 75,5 | 994,3 | 15,9 | 0,0 |
| 10:50 | 247,8 | 1,7 | 5,1 | 18,9 | 19,2 | 19,4 | 74,5 | 994,3 | 15,7 | 0,0 |
| 11:00 | 257,9 | 1,3 | 3,5 | 18,7 | 19,0 | 19,2 | 74,4 | 994,4 | 15,6 | 0,0 |
| 11:10 | 261,1 | 1,2 | 2,9 | 18,7 | 19,0 | 19,2 | 74,5 | 994,4 | 15,6 | 0,0 |
| 11:20 | 262,8 | 0,8 | 2,7 | 18,9 | 19,1 | 19,4 | 73,7 | 994,2 | 15,7 | 0,0 |
| 11:30 | 249,0 | 1,3 | 3,9 | 19,1 | 19,4 | 19,5 | 72,0 | 994,1 | 15,4 | 0,0 |
| 11:40 | 261,8 | 0,9 | 2,8 | 19,1 | 19,4 | 19,7 | 70,5 | 994,0 | 15,2 | 0,0 |
| 11:50 | 264,7 | 1,2 | 3,4 | 19,2 | 19,5 | 19,7 | 70,2 | 994,0 | 15,2 | 0,0 |
| 12:00 | 266,9 | 0,9 | 3,6 | 19,1 | 19,4 | 19,6 | 70,7 | 994,0 | 15,3 | 0,0 |
| 12:10 | 298,2 | 0,5 | 1,5 | 19,2 | 19,4 | 19,6 | 71,0 | 994,0 | 15,4 | 0,0 |
| 12:20 | 284,4 | 0,6 | 1,7 | 19,3 | 19,5 | 19,7 | 71,3 | 993,9 | 15,6 | 0,0 |
| 12:30 | 281,1 | 0,5 | 1,7 | 19,4 | 19,6 | 19,9 | 71,3 | 993,9 | 15,7 | 0,0 |
| 12:40 | 267,7 | 0,5 | 1,5 | 19,6 | 19,8 | 20,2 | 71,0 | 993,8 | 15,8 | 0,0 |
| 12:50 | 314,1 | 0,9 | 3,1 | 19,6 | 20,0 | 20,3 | 69,8 | 993,7 | 15,6 | 0,0 |
| 13:00 | 252,2 | 0,6 | 1,9 | 19,7 | 20,2 | 20,8 | 68,7 | 993,5 | 15,6 | 0,0 |
| 13:10 | 277,6 | 0,6 | 1,7 | 20,3 | 20,5 | 20,8 | 67,6 | 993,5 | 15,6 | 0,0 |
| 13:20 | 280,8 | 1,1 | 2,6 | 19,8 | 20,4 | 20,7 | 68,8 | 993,5 | 15,7 | 0,0 |
| 13:30 | 267,7 | 0,9 | 2,5 | 19,6 | 19,9 | 20,1 | 70,6 | 993,4 | 15,7 | 0,0 |
| 13:40 | 272,3 | 0,7 | 2,6 | 19,8 | 20,1 | 20,6 | 70,6 | 993,3 | 16,0 | 0,0 |
| 13:50 | 289,0 | 0,5 | 1,5 | 19,8 | 20,1 | 20,4 | 69,8 | 993,3 | 15,8 | 0,0 |
| 14:00 | 278,9 | 0,6 | 1,9 | 20,0 | 20,2 | 20,6 | 70,0 | 993,2 | 16,0 | 0,0 |
| 14:10 | 286,6 | 0,3 | 1,2 | 20,1 | 20,2 | 20,5 | 69,6 | 993,1 | 15,9 | 0,0 |
| 14:20 | 326,0 | 0,7 | 1,7 | 20,0 | 20,3 | 20,7 | 68,5 | 992,9 | 15,7 | 0,0 |
| 14:30 | 299,0 | 0,4 | 1,0 | 20,0 | 20,2 | 20,5 | 69,2 | 992,6 | 15,8 | 0,0 |
| 14:40 | 294,7 | 0,3 | 1,7 | 20,1 | 20,3 | 20,7 | 69,4 | 992,5 | 16,0 | 0,0 |
| 14:50 | 311,9 | 0,6 | 2,3 | 20,2 | 20,5 | 20,7 | 68,1 | 992,4 | 15,8 | 0,0 |
| 15:00 | 279,9 | 0,8 | 2,3 | 19,9 | 20,1 | 20,4 | 68,6 | 992,2 | 15,5 | 0,0 |
| 15:10 | 333,2 | 0,5 | 1,7 | 19,8 | 20,0 | 20,4 | 68,7 | 992,1 | 15,5 | 0,0 |
| 15:20 | 17,8 | 0,5 | 1,6 | 20,0 | 20,2 | 20,5 | 68,5 | 992,0 | 15,6 | 0,0 |
| 15:30 | 13,6 | 0,6 | 1,3 | 19,7 | 20,1 | 20,3 | 70,0 | 992,0 | 15,8 | 0,0 |
| 15:40 | 327,2 | 0,6 | 2,2 | 19,1 | 19,6 | 19,9 | 72,2 | 991,8 | 15,8 | 0,0 |
| 15:50 | 11,6 | 0,8 | 3,4 | 18,7 | 19,1 | 19,5 | 72,4 | 991,7 | 15,4 | 0,0 |
| Uhrzeit (MEZ) | Windrichtung in Grad | Windgeschw. in m/s | Windspitzen in m/s | Temp.Minima in °C | Temperatur in °C | Temp.Maxima in °C | Luftfeuchte in % | Luftdruck in hPa | Taupunkt in °C | Niederschlag in mm |
|---|---|---|---|---|---|---|---|---|---|---|
| 16:00 | 2,1 | 0,9 | 2,5 | 18,1 | 18,5 | 19,0 | 72,8 | 991,6 | 14,8 | 0,0 |
| 16:10 | 22,8 | 0,6 | 1,5 | 17,8 | 18,0 | 18,3 | 74,3 | 991,7 | 14,8 | 0,0 |
| 16:20 | 358,3 | 0,4 | 1,5 | 17,8 | 18,0 | 18,3 | 75,5 | 991,6 | 15,1 | 0,0 |
| 16:30 | 317,0 | 0,5 | 1,5 | 17,4 | 17,8 | 18,0 | 77,8 | 991,7 | 15,3 | 0,0 |
| 16:40 | 321,6 | 0,7 | 2,9 | 17,2 | 17,4 | 17,7 | 81,8 | 992,0 | 15,7 | 0,0 |
| 16:50 | 353,3 | 0,9 | 1,7 | 15,9 | 16,6 | 17,2 | 87,0 | 992,0 | 15,9 | 0,0 |
| 17:00 | 342,3 | 0,8 | 2,6 | 15,5 | 15,9 | 16,2 | 90,3 | 991,9 | 15,8 | 0,0 |
| 17:10 | 26,7 | 1,0 | 6,2 | 15,2 | 15,6 | 15,8 | 92,0 | 991,7 | 15,8 | 0,0 |
| 17:20 | 29,7 | 1,6 | 4,4 | 15,2 | 15,4 | 15,6 | 93,4 | 991,0 | 15,7 | 0,0 |
| 17:30 | 27,1 | 1,6 | 3,8 | 15,0 | 15,2 | 15,4 | 94,1 | 990,5 | 15,7 | 0,0 |
| 17:40 | 336,2 | 0,8 | 2,6 | 14,8 | 15,0 | 15,2 | 95,0 | 990,9 | 15,8 | 0,0 |
| 17:50 | 255,6 | 1,6 | 4,6 | 14,7 | 15,0 | 15,3 | 95,2 | 992,3 | 15,7 | 0,0 |
| 18:00 | 279,8 | 0,6 | 2,0 | 14,3 | 14,5 | 14,9 | 95,5 | 992,2 | 15,4 | 0,0 |
| 18:10 | 29,3 | 0,4 | 0,9 | 14,3 | 14,4 | 14,5 | 96,0 | 991,5 | 15,4 | 0,0 |
| 18:20 | 8,0 | 0,4 | 1,0 | 14,3 | 14,4 | 14,5 | 96,1 | 991,3 | 15,5 | 0,0 |
| 18:30 | 66,3 | 0,3 | 1,0 | 14,3 | 14,4 | 14,6 | 96,0 | 991,3 | 15,5 | 0,0 |
| 18:40 | 142,2 | 0,4 | 1,4 | 14,3 | 14,5 | 14,8 | 96,1 | 991,2 | 15,6 | 0,0 |
| 18:50 | 158,0 | 0,9 | 2,4 | 14,3 | 14,6 | 14,8 | 96,1 | 990,8 | 15,5 | 0,0 |
| 19:00 | 197,1 | 0,7 | 1,7 | 14,3 | 14,5 | 14,7 | 96,4 | 991,1 | 15,5 | 0,0 |
| 19:10 | 225,1 | 0,8 | 1,6 | 14,3 | 14,5 | 14,6 | 96,6 | 991,4 | 15,5 | 0,0 |
| 19:20 | 218,4 | 0,7 | 2,0 | 14,2 | 14,4 | 14,7 | 96,6 | 991,4 | 15,5 | 0,0 |
| 19:30 | 215,5 | 0,7 | 1,9 | 14,2 | 14,5 | 14,7 | 96,7 | 991,4 | 15,6 | 0,0 |
| 19:40 | 191,2 | 0,6 | 1,4 | 14,3 | 14,5 | 14,7 | 96,7 | 991,4 | 15,6 | 0,0 |
| 19:50 | 169,8 | 0,4 | 1,3 | 14,3 | 14,5 | 14,7 | 96,6 | 991,3 | 15,7 | 0,0 |
| 20:00 | 298,5 | 0,2 | 0,9 | 14,4 | 14,5 | 14,7 | 96,4 | 991,6 | 15,7 | 0,0 |
| 20:10 | 350,5 | 0,2 | 0,7 | 14,4 | 14,5 | 14,6 | 96,2 | 991,6 | 15,7 | 0,0 |
| 20:20 | 2,9 | 0,3 | 0,9 | 14,5 | 14,6 | 14,7 | 96,1 | 992,1 | 15,7 | 0,0 |
| 20:30 | 13,6 | 0,4 | 1,8 | 14,5 | 14,7 | 15,0 | 96,3 | 992,0 | 15,8 | 0,0 |
| 20:40 | 178,6 | 0,6 | 3,0 | 14,4 | 14,6 | 15,1 | 96,5 | 991,3 | 15,7 | 0,0 |
| 20:50 | 7,5 | 0,4 | 0,8 | 14,4 | 14,5 | 14,6 | 96,9 | 991,8 | 15,7 | 0,0 |
| 21:00 | 345,9 | 0,4 | 1,0 | 14,4 | 14,5 | 14,7 | 96,8 | 991,7 | 15,7 | 0,0 |
| 21:10 | 4,0 | 0,3 | 1,0 | 14,4 | 14,5 | 14,7 | 96,9 | 991,8 | 15,8 | 0,0 |
| 21:20 | 30,6 | 0,2 | 0,8 | 14,5 | 14,6 | 14,7 | 96,9 | 992,0 | 15,9 | 0,0 |
| 21:30 | 353,7 | 0,3 | 0,9 | 14,4 | 14,6 | 14,7 | 96,8 | 992,0 | 15,8 | 0,0 |
| 21:40 | 255,5 | 0,3 | 0,6 | 14,5 | 14,6 | 14,7 | 96,8 | 992,1 | 15,9 | 0,0 |
| 21:50 | 260,0 | 0,2 | 0,7 | 14,5 | 14,6 | 14,7 | 96,8 | 992,3 | 15,9 | 0,0 |
| 22:00 | 264,7 | 0,3 | 0,9 | 14,6 | 14,7 | 14,9 | 96,6 | 992,4 | 15,9 | 0,0 |
| 22:10 | 284,1 | 0,4 | 0,9 | 14,5 | 14,6 | 14,8 | 96,7 | 992,5 | 15,9 | 0,0 |
| 22:20 | 274,1 | 0,4 | 1,0 | 14,4 | 14,6 | 14,8 | 96,7 | 992,6 | 15,8 | 0,0 |
| 22:30 | 239,7 | 0,5 | 1,0 | 14,3 | 14,5 | 14,7 | 96,8 | 992,7 | 15,7 | 0,0 |
| 22:40 | 258,9 | 0,4 | 1,2 | 14,2 | 14,4 | 14,6 | 96,9 | 993,0 | 15,6 | 0,0 |
| 22:50 | 256,7 | 1,2 | 2,5 | 14,3 | 14,5 | 14,7 | 97,1 | 993,2 | 15,5 | 0,0 |
| 23:00 | 253,6 | 0,9 | 1,9 | 14,1 | 14,3 | 14,6 | 97,5 | 993,2 | 15,5 | 0,0 |
| 23:10 | 255,1 | 1,0 | 1,9 | 14,0 | 14,3 | 14,5 | 97,6 | 993,2 | 15,5 | 0,0 |
| 23:20 | 268,3 | 0,8 | 2,9 | 14,1 | 14,2 | 14,5 | 97,6 | 993,4 | 15,5 | 0,0 |
| 23:30 | 271,8 | 1,0 | 2,5 | 13,9 | 14,2 | 14,4 | 97,6 | 993,4 | 15,4 | 0,0 |
| 23:40 | 262,0 | 0,8 | 1,8 | 13,8 | 14,1 | 14,3 | 97,8 | 993,5 | 15,3 | 0,0 |
| 23:50 | 266,1 | 0,7 | 1,4 | 13,9 | 14,1 | 14,2 | 97,8 | 993,5 | 15,4 | 0,0 |
| << 18.8. | 20.8. >> |